Time;durP1;ratioP1;P1;durP2;ratioP2;P2;SDS_P1;SDS_P2;PMS_P1;PMS_P2;Temp;Humidity;BMP_temperature;BMP_pressure;BME280_temperature;BME280_humidity;BME280_pressure;Samples;Min_cycle;Max_cycle;Signal;HPM_P1;HPM_P2
2023/06/04 00:02:07;;;;;;;6.90;3.40;;;;;;;8.88;49.25;100791.16;130135;1275;114724;-64
2023/06/04 00:05:09;;;;;;;11.80;3.80;;;;;;;8.80;49.05;100793.20;130251;1275;114759;-65
2023/06/04 00:08:11;;;;;;;7.50;4.00;;;;;;;8.73;49.48;100792.73;129800;1275;115177;-65
2023/06/04 00:11:14;;;;;;;7.80;4.10;;;;;;;8.66;49.97;100791.91;130218;1269;115134;-64
2023/06/04 00:14:17;;;;;;;10.00;4.20;;;;;;;8.59;50.09;100789.82;130289;1275;114773;-65
2023/06/04 00:17:19;;;;;;;7.10;3.30;;;;;;;8.54;50.26;100788.92;130186;1275;115388;-67
2023/06/04 00:20:22;;;;;;;7.90;3.70;;;;;;;8.49;50.41;100790.15;130142;1260;114869;-65
2023/06/04 00:23:24;;;;;;;5.60;3.30;;;;;;;8.46;50.47;100787.38;130118;1270;115084;-64
2023/06/04 00:26:27;;;;;;;5.80;3.50;;;;;;;8.40;50.45;100792.54;130161;1276;115257;-65
2023/06/04 00:29:29;;;;;;;7.90;4.40;;;;;;;8.33;51.15;100788.30;129748;1276;114872;-66
2023/06/04 00:32:31;;;;;;;7.50;4.10;;;;;;;8.26;51.17;100796.55;130396;1276;114823;-65
2023/06/04 00:35:34;;;;;;;10.00;3.70;;;;;;;8.21;51.50;100795.66;130213;1253;115435;-66
2023/06/04 00:38:36;;;;;;;5.30;3.30;;;;;;;8.15;51.33;100789.06;130094;1272;114729;-65
2023/06/04 00:41:38;;;;;;;11.60;6.30;;;;;;;8.13;51.84;100790.92;130256;1276;114801;-65
2023/06/04 00:44:44;;;;;;;11.50;5.80;;;;;;;8.11;52.05;100793.84;130075;1254;114772;-65
2023/06/04 00:47:46;;;;;;;9.20;5.10;;;;;;;8.11;51.85;100792.40;130053;1276;115268;-64
2023/06/04 00:50:49;;;;;;;7.70;4.00;;;;;;;8.11;51.99;100789.91;129942;1276;114731;-65
2023/06/04 00:53:52;;;;;;;7.20;4.10;;;;;;;8.11;52.07;100788.30;130015;1258;114773;-65
2023/06/04 00:56:54;;;;;;;8.90;5.00;;;;;;;8.12;52.44;100785.59;130029;1275;114749;-65
2023/06/04 00:59:56;;;;;;;9.60;4.90;;;;;;;8.11;52.44;100780.66;130021;1253;115629;-66
2023/06/04 01:03:05;;;;;;;10.70;4.80;;;;;;;8.09;52.57;100781.45;129598;1262;127742;-65
2023/06/04 01:06:13;;;;;;;8.20;4.30;;;;;;;8.06;52.64;100779.73;129904;1259;115220;-65
2023/06/04 01:09:15;;;;;;;9.90;4.30;;;;;;;8.05;53.02;100778.34;129922;1257;114700;-65
2023/06/04 01:12:18;;;;;;;7.90;4.40;;;;;;;8.05;53.20;100778.16;129924;1276;114930;-65
2023/06/04 01:15:20;;;;;;;10.80;5.30;;;;;;;8.06;53.18;100775.28;130080;1276;114733;-65
2023/06/04 01:18:30;;;;;;;9.40;4.90;;;;;;;8.07;53.28;100775.63;130101;1276;115297;-66
2023/06/04 01:21:32;;;;;;;8.90;5.00;;;;;;;8.08;53.90;100776.14;130049;1260;127930;-66
2023/06/04 01:24:40;;;;;;;11.60;4.30;;;;;;;8.07;53.73;100781.30;130315;1254;115073;-65
2023/06/04 01:27:44;;;;;;;9.20;4.20;;;;;;;8.07;53.73;100783.80;129928;1257;114739;-66
2023/06/04 01:30:48;;;;;;;10.90;5.50;;;;;;;8.05;53.93;100779.05;130299;1266;115105;-66
2023/06/04 01:33:55;;;;;;;8.10;5.10;;;;;;;8.05;53.95;100781.19;129569;1278;114816;-66
2023/06/04 01:36:58;;;;;;;12.00;5.60;;;;;;;8.05;54.07;100779.60;129572;1278;127925;-66
2023/06/04 01:40:00;;;;;;;8.10;4.80;;;;;;;8.04;54.18;100783.34;130177;1278;114745;-66
2023/06/04 01:43:03;;;;;;;9.10;4.50;;;;;;;8.05;54.07;100780.13;129763;1277;115080;-66
2023/06/04 01:46:05;;;;;;;12.60;5.60;;;;;;;8.05;54.11;100778.16;129995;1256;114724;-66
2023/06/04 01:49:08;;;;;;;8.10;4.80;;;;;;;8.06;54.18;100777.96;129680;1259;114971;-65
2023/06/04 01:52:11;;;;;;;10.60;4.70;;;;;;;8.06;54.25;100778.49;129829;1278;114815;-65
2023/06/04 01:55:15;;;;;;;9.10;4.90;;;;;;;8.06;54.24;100778.33;129832;1278;114703;-66
2023/06/04 01:58:26;;;;;;;8.90;4.70;;;;;;;8.05;54.44;100776.75;129660;1256;116340;-66
2023/06/04 02:01:29;;;;;;;9.70;4.50;;;;;;;8.05;54.56;100779.77;130032;1259;114774;-66
2023/06/04 02:04:31;;;;;;;7.90;3.70;;;;;;;8.04;54.42;100779.09;130159;1275;114725;-66
2023/06/04 02:07:41;;;;;;;8.40;4.60;;;;;;;8.03;54.61;100778.58;130211;1254;115338;-66
2023/06/04 02:10:47;;;;;;;6.90;4.50;;;;;;;8.02;54.36;100779.70;130215;1257;114727;-66
2023/06/04 02:13:49;;;;;;;8.30;5.00;;;;;;;8.00;54.62;100781.17;130075;1278;129012;-65
2023/06/04 02:16:53;;;;;;;8.00;4.30;;;;;;;7.97;54.92;100779.16;130081;1277;114706;-65
2023/06/04 02:19:56;;;;;;;8.00;4.60;;;;;;;7.94;54.75;100780.31;129799;1278;114808;-66
2023/06/04 02:22:59;;;;;;;9.80;4.80;;;;;;;7.89;54.62;100778.29;129731;1259;459675;-65
2023/06/04 02:26:01;;;;;;;11.90;4.60;;;;;;;7.86;54.96;100778.59;130088;1256;114767;-66
2023/06/04 02:29:03;;;;;;;10.30;5.10;;;;;;;7.81;54.90;100784.06;130043;1254;114785;-65
2023/06/04 02:32:07;;;;;;;11.70;6.50;;;;;;;7.76;55.24;100784.77;130023;1254;129589;-65
2023/06/04 02:35:09;;;;;;;11.80;5.10;;;;;;;7.70;55.52;100784.04;129996;1260;114760;-65
2023/06/04 02:38:12;;;;;;;16.00;5.40;;;;;;;7.65;55.42;100786.31;130384;1256;114783;-64
2023/06/04 02:41:14;;;;;;;7.90;4.40;;;;;;;7.61;55.59;100787.86;130322;1253;114737;-66
2023/06/04 02:44:16;;;;;;;8.70;4.70;;;;;;;7.57;55.72;100787.08;130443;1269;114913;-65
2023/06/04 02:47:19;;;;;;;9.70;5.00;;;;;;;7.53;55.76;100788.44;130139;1275;114728;-64
2023/06/04 02:50:21;;;;;;;7.40;4.30;;;;;;;7.48;56.04;100788.58;130121;1258;127883;-65
2023/06/04 02:53:24;;;;;;;9.10;4.70;;;;;;;7.44;56.02;100791.91;130322;1258;115188;-65
2023/06/04 02:56:26;;;;;;;9.20;4.30;;;;;;;7.39;56.17;100793.29;130143;1254;127630;-66
2023/06/04 02:59:29;;;;;;;9.70;4.70;;;;;;;7.35;56.44;100797.11;130091;1259;115070;-65
2023/06/04 03:02:31;;;;;;;10.10;4.80;;;;;;;7.32;56.27;100797.91;130268;1270;114718;-65
2023/06/04 03:05:34;;;;;;;6.50;4.10;;;;;;;7.29;56.53;100800.30;130190;1257;114762;-66
2023/06/04 03:08:36;;;;;;;8.30;4.40;;;;;;;7.27;56.72;100799.48;130456;1254;114836;-67
2023/06/04 03:11:39;;;;;;;6.20;3.90;;;;;;;7.26;56.82;100802.70;130063;1259;129003;-66
2023/06/04 03:14:41;;;;;;;6.30;4.00;;;;;;;7.25;57.00;100807.70;130577;1254;114737;-66
2023/06/04 03:17:44;;;;;;;9.30;5.00;;;;;;;7.25;57.28;100809.84;130330;1276;114719;-65
2023/06/04 03:20:46;;;;;;;6.80;4.30;;;;;;;7.26;57.21;100810.70;130073;1269;114695;-66
2023/06/04 03:23:48;;;;;;;9.40;4.90;;;;;;;7.27;57.31;100807.83;130336;1254;114850;-65
2023/06/04 03:26:50;;;;;;;8.30;4.20;;;;;;;7.30;57.65;100811.47;129652;1256;116493;-64
2023/06/04 03:29:53;;;;;;;9.10;4.80;;;;;;;7.35;57.95;100813.14;129942;1254;114750;-65
2023/06/04 03:32:55;;;;;;;11.10;5.40;;;;;;;7.41;57.86;100814.02;130056;1257;115177;-65
2023/06/04 03:35:58;;;;;;;12.30;5.30;;;;;;;7.49;57.90;100814.86;129786;1262;115201;-65
2023/06/04 03:39:00;;;;;;;9.50;5.20;;;;;;;7.57;57.73;100814.98;130140;1254;114792;-65
2023/06/04 03:42:03;;;;;;;12.50;4.80;;;;;;;7.65;58.10;100812.80;129969;1254;114706;-65
2023/06/04 03:45:06;;;;;;;10.80;5.40;;;;;;;7.72;57.99;100815.80;129998;1257;114674;-66
2023/06/04 03:48:09;;;;;;;9.50;5.10;;;;;;;7.79;58.02;100817.02;130017;1253;115090;-65
2023/06/04 03:51:12;;;;;;;10.30;4.50;;;;;;;7.87;58.17;100818.36;130052;1252;115385;-65
2023/06/04 03:54:16;;;;;;;8.90;4.60;;;;;;;7.95;58.34;100816.53;130090;1256;115220;-65
2023/06/04 03:57:19;;;;;;;10.00;5.10;;;;;;;8.06;58.19;100816.02;129783;1254;114760;-65
2023/06/04 04:00:21;;;;;;;7.40;4.40;;;;;;;8.16;58.12;100817.14;129968;1256;115350;-67
2023/06/04 04:03:24;;;;;;;9.30;4.50;;;;;;;8.28;58.15;100816.25;130377;1254;115134;-65
2023/06/04 04:06:26;;;;;;;8.50;4.60;;;;;;;8.41;57.96;100816.73;130005;1256;114821;-66
2023/06/04 04:09:28;;;;;;;5.70;3.70;;;;;;;8.54;57.85;100816.68;129792;1274;128512;-64
2023/06/04 04:12:30;;;;;;;9.10;4.40;;;;;;;8.69;57.78;100814.94;129940;1275;114779;-65
2023/06/04 04:15:32;;;;;;;13.20;6.40;;;;;;;8.84;57.58;100809.64;130137;1256;115146;-65
2023/06/04 04:18:36;;;;;;;9.20;4.10;;;;;;;8.99;57.55;100810.56;129749;1256;114908;-64
2023/06/04 04:21:39;;;;;;;8.00;4.60;;;;;;;9.13;57.74;100813.80;129758;1261;114885;-65
2023/06/04 04:24:41;;;;;;;7.60;4.40;;;;;;;9.27;57.56;100813.69;130052;1257;114956;-66
2023/06/04 04:27:44;;;;;;;8.10;4.40;;;;;;;9.40;57.36;100813.36;129982;1254;114769;-66
2023/06/04 04:30:46;;;;;;;9.40;4.40;;;;;;;9.53;57.25;100812.73;130069;1255;114794;-65
2023/06/04 04:33:51;;;;;;;8.80;5.90;;;;;;;9.67;57.19;100815.98;129817;1256;114622;-65
2023/06/04 04:36:54;;;;;;;11.50;4.60;;;;;;;9.83;57.01;100816.80;130121;1257;115532;-65
2023/06/04 04:39:56;;;;;;;5.60;4.00;;;;;;;10.07;57.21;100815.35;130097;1256;114778;-65
2023/06/04 04:42:59;;;;;;;7.40;3.90;;;;;;;11.01;58.00;100817.06;130105;1256;115100;-65
2023/06/04 04:46:01;;;;;;;6.60;3.50;;;;;;;12.47;57.13;100812.89;129995;1256;114709;-64
2023/06/04 04:49:03;;;;;;;5.40;3.80;;;;;;;14.08;55.81;100811.15;129954;1271;114712;-64
2023/06/04 04:52:06;;;;;;;11.90;3.60;;;;;;;15.55;53.92;100804.89;129983;1260;115179;-65
2023/06/04 04:55:09;;;;;;;5.90;3.30;;;;;;;16.89;52.50;100801.71;130041;1276;115138;-64
2023/06/04 04:58:12;;;;;;;7.10;3.60;;;;;;;17.96;50.20;100802.36;129953;1254;115169;-64
2023/06/04 05:01:14;;;;;;;6.90;3.70;;;;;;;18.99;49.38;100802.77;130049;1256;114764;-64
2023/06/04 05:04:17;;;;;;;7.50;3.80;;;;;;;20.20;48.16;100801.38;130071;1254;115345;-63
2023/06/04 05:07:21;;;;;;;5.50;3.50;;;;;;;21.26;46.08;100797.29;130120;1254;114726;-64
2023/06/04 05:10:23;;;;;;;6.50;3.60;;;;;;;21.95;43.65;100798.86;130095;1266;114984;-64
2023/06/04 05:13:26;;;;;;;5.80;3.60;;;;;;;22.46;42.62;100801.56;130107;1254;114727;-65
2023/06/04 05:16:29;;;;;;;5.00;3.40;;;;;;;22.99;41.03;100803.92;130071;1256;114731;-64
2023/06/04 05:19:32;;;;;;;5.60;3.30;;;;;;;23.62;40.93;100803.82;130119;1272;114795;-64
2023/06/04 05:22:36;;;;;;;5.60;3.00;;;;;;;24.34;39.31;100799.36;129974;1256;114709;-65
2023/06/04 05:25:38;;;;;;;7.00;3.60;;;;;;;24.63;37.17;100799.55;130145;1257;115141;-65
2023/06/04 05:28:43;;;;;;;5.10;3.10;;;;;;;24.77;36.48;100799.27;130174;1268;114731;-65
2023/06/04 05:31:45;;;;;;;;;;;;;;;25.09;36.11;100799.14;130311;1261;114801;-65
2023/06/04 05:34:49;;;;;;;5.00;3.40;;;;;;;25.64;35.79;100796.39;130149;1256;114721;-64
2023/06/04 05:37:53;;;;;;;5.50;3.20;;;;;;;26.08;34.84;100799.21;130280;1276;114781;-65
2023/06/04 05:40:57;;;;;;;6.30;3.40;;;;;;;26.41;34.36;100794.75;130479;1257;115143;-64
2023/06/04 05:43:59;;;;;;;5.60;3.10;;;;;;;26.71;33.35;100801.43;130313;1257;115427;-64
2023/06/04 05:47:02;;;;;;;4.60;3.60;;;;;;;27.11;33.24;100802.92;129921;1268;114723;-64
2023/06/04 05:50:05;;;;;;;5.70;3.30;;;;;;;27.57;32.81;100798.50;130129;1276;114719;-65
2023/06/04 05:53:07;;;;;;;6.20;2.90;;;;;;;27.61;30.98;100796.61;130247;1272;114734;-65
2023/06/04 05:56:10;;;;;;;4.80;2.90;;;;;;;27.36;30.59;100794.27;130425;1275;114711;-65
2023/06/04 05:59:12;;;;;;;5.10;3.10;;;;;;;27.52;30.82;100797.04;130131;1275;116570;-65
2023/06/04 06:02:14;;;;;;;9.50;3.30;;;;;;;27.97;30.68;100794.29;130360;1257;114663;-65
2023/06/04 06:05:18;;;;;;;9.30;4.00;;;;;;;28.37;29.94;100795.48;130091;1256;114753;-65
2023/06/04 06:08:21;;;;;;;6.80;2.90;;;;;;;28.43;28.51;100797.02;129817;1273;114808;-65
2023/06/04 06:11:23;;;;;;;8.90;2.60;;;;;;;28.16;28.64;100797.59;130519;1275;115075;-65
2023/06/04 06:14:25;;;;;;;9.50;3.40;;;;;;;28.12;28.74;100800.89;130337;1270;114731;-65
2023/06/04 06:17:28;;;;;;;4.10;2.70;;;;;;;28.37;28.48;100798.48;130463;1254;114797;-65
2023/06/04 06:20:32;;;;;;;3.50;2.40;;;;;;;28.66;28.24;100798.95;130012;1259;114801;-65
2023/06/04 06:23:35;;;;;;;6.00;2.70;;;;;;;28.91;27.43;100800.71;129839;1261;114799;-65
2023/06/04 06:26:38;;;;;;;4.50;3.10;;;;;;;28.51;26.89;100799.25;130151;1256;114695;-65
2023/06/04 06:29:41;;;;;;;4.80;3.20;;;;;;;28.45;27.33;100803.73;130458;1260;114785;-65
2023/06/04 06:32:45;;;;;;;4.90;3.00;;;;;;;28.63;27.13;100796.52;130143;1254;114718;-65
2023/06/04 06:35:48;;;;;;;6.50;2.50;;;;;;;28.81;27.00;100800.34;129812;1254;114801;-64
2023/06/04 06:38:50;;;;;;;4.30;2.70;;;;;;;28.85;26.85;100800.80;130566;1256;114712;-66
2023/06/04 06:41:52;;;;;;;4.10;2.50;;;;;;;28.64;26.71;100803.58;130490;1253;114721;-65
2023/06/04 06:44:55;;;;;;;5.40;2.50;;;;;;;28.50;26.58;100806.45;130221;1275;115199;-66
2023/06/04 06:47:57;;;;;;;3.40;2.70;;;;;;;28.35;26.22;100811.15;130538;1254;114737;-64
2023/06/04 06:50:59;;;;;;;8.10;3.10;;;;;;;28.26;26.75;100817.07;130505;1276;114712;-65
2023/06/04 06:54:05;;;;;;;3.00;2.50;;;;;;;28.36;26.68;100813.98;130405;1260;114795;-66
2023/06/04 06:57:08;;;;;;;4.20;2.60;;;;;;;28.46;26.70;100809.72;130633;1256;114779;-65
2023/06/04 07:00:11;;;;;;;6.70;3.10;;;;;;;28.88;26.69;100813.45;130420;1259;114724;-67
2023/06/04 07:03:13;;;;;;;3.10;2.50;;;;;;;29.20;26.35;100816.21;130374;1276;114782;-66
2023/06/04 07:06:16;;;;;;;6.10;3.00;;;;;;;29.33;26.04;100812.48;130300;1276;115081;-67
2023/06/04 07:09:18;;;;;;;5.90;2.60;;;;;;;29.43;25.96;100811.08;130068;1276;114702;-67
2023/06/04 07:12:21;;;;;;;4.70;2.60;;;;;;;29.71;25.78;100812.06;130149;1256;115388;-65
2023/06/04 07:15:23;;;;;;;3.20;2.80;;;;;;;30.05;25.86;100809.91;130023;1256;114767;-66
2023/06/04 07:18:25;;;;;;;4.80;2.40;;;;;;;30.57;25.64;100806.56;130119;1260;114785;-66
2023/06/04 07:21:28;;;;;;;3.80;2.50;;;;;;;30.97;25.24;100803.77;129991;1267;114710;-66
2023/06/04 07:24:30;;;;;;;5.00;2.90;;;;;;;31.22;24.82;100808.80;130136;1254;114976;-66
2023/06/04 07:27:33;;;;;;;3.90;2.70;;;;;;;31.39;24.56;100808.48;130377;1259;114779;-66
2023/06/04 07:30:36;;;;;;;4.10;2.60;;;;;;;31.38;24.33;100810.30;130322;1254;114667;-65
2023/06/04 07:33:43;;;;;;;5.20;2.30;;;;;;;31.06;23.61;100810.83;130290;1261;114773;-66
2023/06/04 07:36:45;;;;;;;3.40;2.50;;;;;;;30.68;23.79;100811.07;130005;1263;114889;-66
2023/06/04 07:39:47;;;;;;;3.90;2.40;;;;;;;30.67;24.23;100810.08;130325;1276;114725;-66
2023/06/04 07:42:49;;;;;;;3.80;2.20;;;;;;;30.88;23.54;100813.77;130327;1257;114795;-66
2023/06/04 07:45:51;;;;;;;3.40;2.90;;;;;;;30.58;23.22;100811.83;129706;1267;119017;-65
2023/06/04 07:48:53;;;;;;;3.00;2.00;;;;;;;30.52;23.66;100811.14;130241;1257;114644;-64
2023/06/04 07:51:55;;;;;;;4.90;2.50;;;;;;;30.32;22.70;100816.41;130646;1275;115150;-66
2023/06/04 07:54:58;;;;;;;5.00;2.20;;;;;;;29.76;23.19;100814.57;130439;1272;114676;-68
2023/06/04 07:58:00;;;;;;;4.30;2.50;;;;;;;29.71;23.42;100814.35;130387;1254;114686;-67
2023/06/04 08:01:02;;;;;;;3.10;2.30;;;;;;;29.77;23.88;100804.33;130488;1257;114790;-68
2023/06/04 08:04:04;;;;;;;4.80;2.60;;;;;;;30.02;23.80;100805.75;130461;1256;114681;-67
2023/06/04 08:07:06;;;;;;;3.00;1.90;;;;;;;30.18;23.18;100801.12;130011;1258;118932;-67
2023/06/04 08:10:08;;;;;;;3.20;2.20;;;;;;;30.19;23.27;100802.77;130356;1254;114786;-67
2023/06/04 08:13:10;;;;;;;4.60;2.20;;;;;;;30.25;23.37;100805.42;130504;1256;116321;-68
2023/06/04 08:16:12;;;;;;;6.70;2.00;;;;;;;30.37;23.36;100804.66;130653;1256;114796;-66
2023/06/04 08:19:15;;;;;;;5.20;2.10;;;;;;;30.23;22.86;100801.64;130616;1257;115293;-66
2023/06/04 08:22:17;;;;;;;2.50;1.70;;;;;;;30.14;22.71;100802.01;130648;1266;114686;-67
2023/06/04 08:25:19;;;;;;;4.50;2.30;;;;;;;30.09;22.35;100802.88;130869;1273;114696;-66
2023/06/04 08:28:21;;;;;;;3.70;2.00;;;;;;;30.06;22.18;100802.25;131591;1264;120178;-67
2023/06/04 08:31:23;;;;;;;2.70;2.00;;;;;;;29.76;21.45;100801.98;130816;1254;114698;-67
2023/06/04 08:34:25;;;;;;;6.70;2.10;;;;;;;29.29;21.92;100800.49;130314;1261;114785;-67
2023/06/04 08:37:28;;;;;;;2.20;1.70;;;;;;;29.11;22.07;100799.52;129945;1270;115488;-67
2023/06/04 08:40:30;;;;;;;4.10;1.80;;;;;;;29.11;22.32;100797.81;130116;1263;114733;-67
2023/06/04 08:43:34;;;;;;;4.00;2.30;;;;;;;29.32;22.64;100799.22;130054;1278;114733;-67
2023/06/04 08:46:40;;;;;;;2.90;1.70;;;;;;;29.47;22.55;100795.95;130198;1267;114773;-67
2023/06/04 08:49:44;;;;;;;3.50;1.60;;;;;;;29.42;21.95;100799.42;129951;1260;114860;-67
2023/06/04 08:52:47;;;;;;;1.70;1.50;;;;;;;28.94;21.79;100805.85;129868;1265;114819;-66
2023/06/04 08:55:50;;;;;;;2.70;1.60;;;;;;;28.33;21.18;100813.02;130224;1277;115211;-67
2023/06/04 08:58:53;;;;;;;2.90;1.50;;;;;;;27.80;21.67;100804.85;129822;1268;115590;-66
2023/06/04 09:01:55;;;;;;;2.20;1.50;;;;;;;27.75;21.94;100804.65;130156;1278;114786;-66
2023/06/04 09:04:58;;;;;;;2.00;1.50;;;;;;;27.60;21.51;100814.48;130079;1270;114828;-66
2023/06/04 09:08:01;;;;;;;3.70;1.60;;;;;;;27.26;21.63;100817.49;130042;1263;114859;-67
2023/06/04 09:11:10;;;;;;;3.00;1.40;;;;;;;27.20;22.00;100819.66;130140;1268;114814;-67
2023/06/04 09:14:16;;;;;;;3.00;1.80;;;;;;;27.27;22.19;100818.34;130073;1262;114809;-66
2023/06/04 09:17:23;;;;;;;3.50;1.70;;;;;;;27.17;22.34;100814.30;130133;1260;114728;-67
2023/06/04 09:20:27;;;;;;;3.10;1.60;;;;;;;27.13;22.26;100818.84;130101;1278;119475;-67
2023/06/04 09:23:30;;;;;;;;;;;;;;;26.99;22.28;100817.19;130095;1260;114718;-67
2023/06/04 09:26:32;;;;;;;2.10;1.30;;;;;;;27.02;22.51;100815.13;130201;1259;114877;-67
2023/06/04 09:29:34;;;;;;;1.30;1.10;;;;;;;26.90;21.98;100815.08;130253;1266;114757;-66
2023/06/04 09:32:36;;;;;;;1.70;1.20;;;;;;;26.56;21.92;100816.45;130303;1276;115087;-65
2023/06/04 09:35:38;;;;;;;2.40;1.30;;;;;;;26.23;21.92;100815.40;130389;1276;114711;-61
2023/06/04 09:38:41;;;;;;;2.70;1.30;;;;;;;25.89;21.96;100818.43;130164;1276;115404;-61
2023/06/04 09:41:44;;;;;;;2.60;1.40;;;;;;;25.51;22.28;100813.83;130144;1272;114709;-60
2023/06/04 09:44:46;;;;;;;1.90;1.50;;;;;;;25.27;22.58;100812.13;130154;1260;116298;-60
2023/06/04 09:47:48;;;;;;;2.50;1.50;;;;;;;24.97;22.88;100811.73;129960;1255;114764;-61
2023/06/04 09:50:50;;;;;;;2.00;1.60;;;;;;;24.75;23.24;100813.89;130120;1260;114804;-61
2023/06/04 09:54:01;;;;;;;3.70;1.20;;;;;;;24.57;23.36;100813.48;130251;1276;114697;-60
2023/06/04 09:57:16;;;;;;;2.80;1.40;;;;;;;24.43;23.50;100810.92;129749;1263;114898;-62
2023/06/04 10:00:19;;;;;;;;;;;;;;;24.22;23.46;100807.38;130217;1275;128941;-62
2023/06/04 10:03:25;;;;;;;2.70;1.60;;;;;;;23.84;23.56;100813.91;130265;1275;114897;-62
2023/06/04 10:06:34;;;;;;;1.60;1.40;;;;;;;23.40;24.01;100805.77;129863;1259;115272;-62
2023/06/04 10:09:45;;;;;;;2.60;1.40;;;;;;;23.17;24.37;100802.88;129809;1262;114820;-63
2023/06/04 10:12:53;;;;;;;2.00;1.30;;;;;;;23.12;24.84;100787.65;129986;1264;114738;-62
2023/06/04 10:16:00;;;;;;;1.40;1.20;;;;;;;23.21;25.09;100787.65;130143;1265;128682;-63
2023/06/04 10:19:04;;;;;;;1.70;1.40;;;;;;;23.23;24.80;100786.77;129877;1261;115211;-63
2023/06/04 10:22:07;;;;;;;2.30;1.30;;;;;;;23.13;24.70;100783.02;129752;1276;114760;-64
2023/06/04 10:25:10;;;;;;;3.60;1.50;;;;;;;22.91;24.90;100792.67;130019;1275;114902;-64
2023/06/04 10:28:12;;;;;;;2.30;1.50;;;;;;;22.72;24.93;100795.21;130098;1276;115221;-61
2023/06/04 10:31:15;;;;;;;3.80;1.90;;;;;;;22.53;25.01;100789.45;130205;1276;114705;-63
2023/06/04 10:34:18;;;;;;;1.50;1.40;;;;;;;22.38;25.23;100787.95;129733;1254;127898;-63
2023/06/04 10:37:21;;;;;;;2.30;1.30;;;;;;;22.33;25.66;100785.23;129995;1276;114647;-64
2023/06/04 10:40:32;;;;;;;3.90;1.60;;;;;;;22.38;25.85;100787.88;129852;1270;115148;-62
2023/06/04 10:43:34;;;;;;;3.30;1.60;;;;;;;22.42;25.84;100781.55;129967;1260;114910;-61
2023/06/04 10:46:40;;;;;;;6.00;1.70;;;;;;;22.45;25.96;100781.60;130033;1266;114712;-61
2023/06/04 10:49:42;;;;;;;5.70;1.50;;;;;;;22.53;26.45;100776.95;130037;1266;128151;-62
2023/06/04 10:52:52;;;;;;;3.50;1.50;;;;;;;22.70;26.57;100779.34;130134;1257;114705;-61
2023/06/04 10:55:55;;;;;;;3.80;2.40;;;;;;;22.82;26.20;100778.03;129856;1261;114796;-60
2023/06/04 10:58:58;;;;;;;1.70;1.40;;;;;;;22.76;25.99;100774.98;130207;1257;115273;-63
2023/06/04 11:02:06;;;;;;;1.90;1.70;;;;;;;22.59;26.08;100782.87;130151;1275;114798;-61
2023/06/04 11:05:09;;;;;;;3.90;2.10;;;;;;;22.39;25.95;100784.50;129954;1270;128019;-60
2023/06/04 11:08:13;;;;;;;5.50;1.80;;;;;;;22.36;26.54;100774.25;130241;1266;115099;-61
2023/06/04 11:11:16;;;;;;;2.70;1.60;;;;;;;22.44;26.64;100765.30;129857;1261;115367;-61
2023/06/04 11:14:20;;;;;;;6.10;1.60;;;;;;;22.56;26.72;100762.04;130110;1260;115234;-62
2023/06/04 11:17:23;;;;;;;33.80;19.10;;;;;;;22.66;26.67;100766.04;130098;1267;114709;-61
2023/06/04 11:20:25;;;;;;;5.00;3.20;;;;;;;22.66;26.41;100768.30;130000;1254;114715;-62
2023/06/04 11:23:28;;;;;;;5.00;3.10;;;;;;;22.54;26.46;100766.79;130143;1257;114747;-60
2023/06/04 11:26:34;;;;;;;4.10;3.20;;;;;;;22.49;26.77;100765.26;130156;1270;114747;-61
2023/06/04 11:29:37;;;;;;;3.20;2.00;;;;;;;22.51;27.06;100766.68;130155;1268;115145;-60
2023/06/04 11:32:39;;;;;;;3.70;3.10;;;;;;;22.52;26.79;100769.16;130059;1257;114863;-60
2023/06/04 11:35:43;;;;;;;3.30;1.60;;;;;;;22.53;26.78;100765.48;130243;1257;115173;-60
2023/06/04 11:38:57;;;;;;;4.50;1.90;;;;;;;22.48;26.57;100765.19;130206;1257;114696;-61
2023/06/04 11:42:04;;;;;;;3.60;1.50;;;;;;;22.40;26.87;100762.20;130153;1260;114872;-61
2023/06/04 11:45:08;;;;;;;3.90;2.30;;;;;;;22.35;26.66;100759.41;130204;1275;114751;-61
2023/06/04 11:48:11;;;;;;;6.30;1.90;;;;;;;22.28;26.70;100757.52;129839;1276;114862;-61
2023/06/04 11:51:13;;;;;;;2.10;1.80;;;;;;;22.24;26.72;100759.65;129751;1260;127804;-62
2023/06/04 11:54:17;;;;;;;1.50;1.40;;;;;;;22.20;26.68;100756.99;130051;1260;114770;-61
2023/06/04 11:57:19;;;;;;;4.20;1.40;;;;;;;22.12;26.94;100760.20;130172;1254;114799;-62
2023/06/04 12:00:22;;;;;;;3.10;1.50;;;;;;;22.03;26.74;100754.12;130182;1257;114693;-61
2023/06/04 12:03:38;;;;;;;3.60;1.80;;;;;;;21.98;26.95;100750.00;130328;1271;114757;-62
2023/06/04 12:06:57;;;;;;;2.90;1.30;;;;;;;21.97;27.10;100759.07;130214;1257;115026;-62
2023/06/04 12:10:08;;;;;;;5.30;1.60;;;;;;;21.95;27.15;100759.26;129942;1261;128060;-63
2023/06/04 12:13:11;;;;;;;3.20;2.40;;;;;;;21.90;27.17;100754.58;130054;1262;115198;-62
2023/06/04 12:16:16;;;;;;;3.70;1.70;;;;;;;21.86;27.22;100755.11;130139;1257;114731;-62
2023/06/04 12:19:19;;;;;;;4.60;2.60;;;;;;;21.84;27.00;100754.15;130276;1258;114776;-61
2023/06/04 12:22:22;;;;;;;2.40;1.80;;;;;;;21.83;27.07;100750.30;130180;1267;114742;-61
2023/06/04 12:25:28;;;;;;;4.90;1.50;;;;;;;21.79;27.03;100751.55;129911;1275;128375;-62
2023/06/04 12:28:35;;;;;;;6.40;2.40;;;;;;;21.73;27.13;100751.90;130262;1257;115220;-62
2023/06/04 12:31:46;;;;;;;2.10;1.50;;;;;;;21.67;27.23;100746.06;129898;1257;114758;-62
2023/06/04 12:34:49;;;;;;;2.30;1.60;;;;;;;21.66;27.66;100744.56;129954;1272;114713;-61
2023/06/04 12:37:51;;;;;;;5.00;2.20;;;;;;;21.65;27.69;100745.71;130248;1257;114715;-62
2023/06/04 12:40:54;;;;;;;4.00;1.70;;;;;;;21.65;27.56;100742.61;130284;1257;114724;-62
2023/06/04 12:43:58;;;;;;;4.60;1.80;;;;;;;21.69;27.44;100743.14;130403;1266;114770;-62
2023/06/04 12:47:01;;;;;;;2.80;2.20;;;;;;;21.72;27.47;100742.94;130081;1257;114744;-62
2023/06/04 12:50:04;;;;;;;4.80;1.80;;;;;;;21.73;27.48;100741.75;130089;1257;114718;-62
2023/06/04 12:53:06;;;;;;;5.40;1.90;;;;;;;21.70;27.51;100745.63;130167;1266;114981;-61
2023/06/04 12:56:09;;;;;;;1.90;1.50;;;;;;;21.71;27.55;100743.95;130190;1276;114783;-62
2023/06/04 12:59:12;;;;;;;2.70;1.70;;;;;;;21.74;27.64;100741.98;129816;1274;116354;-62
2023/06/04 13:02:14;;;;;;;5.60;1.70;;;;;;;21.81;28.03;100740.10;130168;1261;114714;-61
2023/06/04 13:05:17;;;;;;;2.80;1.80;;;;;;;21.85;27.78;100741.55;130138;1270;114731;-61
2023/06/04 13:08:23;;;;;;;3.70;1.90;;;;;;;21.92;28.10;100738.94;130098;1274;114717;-61
2023/06/04 13:11:25;;;;;;;2.60;1.60;;;;;;;21.99;28.03;100737.42;130118;1268;114945;-61
2023/06/04 13:14:32;;;;;;;2.60;1.40;;;;;;;22.04;28.00;100739.90;130056;1255;115301;-61
2023/06/04 13:17:35;;;;;;;2.40;1.60;;;;;;;22.07;27.72;100735.63;130176;1275;128847;-62
2023/06/04 13:20:37;;;;;;;4.50;2.00;;;;;;;22.01;27.47;100728.14;130108;1275;114721;-61
2023/06/04 13:23:39;;;;;;;4.50;1.40;;;;;;;22.00;27.98;100727.67;130190;1275;114720;-61
2023/06/04 13:26:42;;;;;;;4.50;1.50;;;;;;;22.03;27.95;100723.39;130371;1257;114730;-61
2023/06/04 13:29:45;;;;;;;3.20;1.60;;;;;;;22.04;27.97;100720.43;130254;1275;114712;-62
2023/06/04 13:32:48;;;;;;;2.60;1.70;;;;;;;22.05;27.66;100722.70;130285;1272;115249;-60
2023/06/04 13:35:50;;;;;;;3.60;1.60;;;;;;;22.07;28.03;100717.77;130436;1273;115070;-62
2023/06/04 13:38:54;;;;;;;5.00;2.20;;;;;;;22.07;27.74;100717.08;130405;1275;114637;-61
2023/06/04 13:41:58;;;;;;;1.70;1.40;;;;;;;22.07;27.40;100718.17;129770;1261;114734;-61
2023/06/04 13:45:03;;;;;;;3.40;1.50;;;;;;;22.05;27.38;100715.92;130000;1254;114697;-63
2023/06/04 13:48:06;;;;;;;4.60;1.60;;;;;;;22.05;27.40;100716.35;130033;1253;114811;-62
2023/06/04 13:51:09;;;;;;;4.10;1.30;;;;;;;22.04;27.19;100716.59;129830;1260;114772;-61
2023/06/04 13:54:11;;;;;;;1.70;1.30;;;;;;;22.02;27.35;100709.85;129922;1276;114772;-61
2023/06/04 13:57:14;;;;;;;3.20;2.00;;;;;;;22.02;27.56;100708.36;130100;1276;114737;-61